createdAt,value
2023-01-09T00:00:21.299Z,14.73
2023-01-09T00:05:22.277Z,14.13
2023-01-09T00:10:22.965Z,14.35
2023-01-09T00:15:25.026Z,14.05
2023-01-09T00:20:25.658Z,15.55
2023-01-09T00:25:26.297Z,14.27
2023-01-09T00:30:28.761Z,14.35
2023-01-09T00:35:30.252Z,15.20
2023-01-09T00:40:30.988Z,15.27
2023-01-09T00:45:33.037Z,16.23
2023-01-09T00:50:35.531Z,15.32
2023-01-09T00:55:38.031Z,17.27
2023-01-09T01:00:40.045Z,15.60
2023-01-09T01:05:58.430Z,14.15
2023-01-09T01:10:59.093Z,15.10
2023-01-09T01:16:01.079Z,15.27
2023-01-09T01:21:01.733Z,15.90
2023-01-09T01:26:06.656Z,14.55
2023-01-09T01:31:09.410Z,16.98
2023-01-09T01:36:10.695Z,15.88
2023-01-09T01:41:11.662Z,14.77
2023-01-09T01:46:13.674Z,14.55
2023-01-09T01:51:16.360Z,13.18
2023-01-09T01:56:20.815Z,14.25
2023-01-09T02:01:25.525Z,13.95
2023-01-09T02:06:26.862Z,14.85
2023-01-09T02:11:28.063Z,13.60
2023-01-09T02:16:42.157Z,14.80
2023-01-09T02:21:55.824Z,13.05
2023-01-09T02:27:08.323Z,13.30
2023-01-09T02:32:22.330Z,13.45
2023-01-09T02:37:30.573Z,13.77
2023-01-09T02:42:33.026Z,15.77
2023-01-09T02:47:41.828Z,14.55
2023-01-09T02:53:00.765Z,13.07
2023-01-09T02:58:10.405Z,13.45
2023-01-09T03:03:20.185Z,13.75
2023-01-09T03:08:24.123Z,14.50
2023-01-09T03:13:27.074Z,14.02
2023-01-09T03:18:32.525Z,14.23
2023-01-09T03:23:47.636Z,14.73
2023-01-09T03:28:49.129Z,15.13
2023-01-09T03:33:51.208Z,16.60
2023-01-09T03:38:52.362Z,17.17
2023-01-09T03:43:53.029Z,17.33
2023-01-09T03:48:55.018Z,18.20
2023-01-09T03:53:55.724Z,16.45
2023-01-09T03:58:56.418Z,15.95
2023-01-09T04:03:58.471Z,16.67
2023-01-09T04:08:59.130Z,16.90
2023-01-09T04:13:59.810Z,15.27
2023-01-09T04:19:01.883Z,16.52
2023-01-09T04:24:02.997Z,17.00
2023-01-09T04:29:03.645Z,16.80
2023-01-09T04:34:05.641Z,14.32
2023-01-09T04:39:06.362Z,15.25
2023-01-09T04:44:07.166Z,16.13
2023-01-09T04:49:09.175Z,15.07
2023-01-09T04:54:09.928Z,14.43
2023-01-09T04:59:10.903Z,14.73
2023-01-09T05:04:13.981Z,14.73
2023-01-09T05:09:14.654Z,13.95
2023-01-09T05:14:15.290Z,13.98
2023-01-09T05:19:17.311Z,13.85
2023-01-09T05:24:18.034Z,13.45
2023-01-09T05:29:18.683Z,14.15
2023-01-09T05:34:21.253Z,14.00
2023-01-09T05:39:21.936Z,13.23
2023-01-09T05:44:22.649Z,14.00
2023-01-09T05:49:24.625Z,13.70
2023-01-09T05:54:25.324Z,13.27
2023-01-09T05:59:26.048Z,13.85
2023-01-09T06:04:29.911Z,13.18
2023-01-09T06:09:30.865Z,14.48
2023-01-09T06:14:31.624Z,13.55
2023-01-09T06:19:33.720Z,13.88
2023-01-09T06:24:34.398Z,14.18
2023-01-09T06:29:35.070Z,13.02
2023-01-09T06:34:37.068Z,13.07
2023-01-09T06:39:37.905Z,13.27
2023-01-09T06:44:38.585Z,12.02
2023-01-09T06:49:43.653Z,12.70
2023-01-09T06:54:44.302Z,12.35
2023-01-09T06:59:44.943Z,12.45
2023-01-09T07:04:47.023Z,12.25
2023-01-09T07:09:47.693Z,12.88
2023-01-09T07:14:48.317Z,12.70
2023-01-09T07:19:50.302Z,12.85
2023-01-09T07:24:50.989Z,11.68
2023-01-09T07:29:53.409Z,12.43
2023-01-09T07:34:55.450Z,12.32
2023-01-09T07:39:56.333Z,13.20
2023-01-09T07:44:57.055Z,12.07
2023-01-09T07:49:59.061Z,12.75
2023-01-09T07:54:59.756Z,13.63
2023-01-09T08:00:03.331Z,13.65
2023-01-09T08:05:15.925Z,13.35
2023-01-09T08:10:19.626Z,12.75
2023-01-09T08:15:20.369Z,12.32
2023-01-09T08:20:22.463Z,12.90
2023-01-09T08:25:23.205Z,13.30
2023-01-09T08:30:25.917Z,12.25
2023-01-09T08:35:27.995Z,11.80
2023-01-09T08:40:28.875Z,10.73
2023-01-09T08:45:47.416Z,11.82
2023-01-09T08:50:49.543Z,11.43
2023-01-09T08:55:51.340Z,11.00
2023-01-09T09:00:51.984Z,9.07
2023-01-09T09:05:54.063Z,8.43
2023-01-09T09:10:54.716Z,7.78
2023-01-09T09:15:55.393Z,6.22
2023-01-09T09:20:57.403Z,6.70
2023-01-09T09:25:58.165Z,6.07
2023-01-09T09:30:58.901Z,5.85
2023-01-09T09:36:01.298Z,6.43
2023-01-09T09:41:35.096Z,6.40
2023-01-09T09:46:43.339Z,3.83
2023-01-09T09:51:54.143Z,3.10
2023-01-09T09:56:58.945Z,1.95
2023-01-09T10:02:03.322Z,1.95
2023-01-09T10:07:09.619Z,1.40
2023-01-09T10:12:25.428Z,1.60
2023-01-09T10:17:40.320Z,1.77
2023-01-09T10:22:52.094Z,1.52
2023-01-09T10:28:07.956Z,2.50
2023-01-09T10:33:24.001Z,1.63
2023-01-09T10:38:32.401Z,1.95
2023-01-09T10:43:40.075Z,1.58
2023-01-09T10:48:45.653Z,1.67
2023-01-09T10:53:51.831Z,1.58
2023-01-09T10:58:53.879Z,1.40
2023-01-09T11:03:54.612Z,1.55
2023-01-09T11:09:00.110Z,1.25
2023-01-09T11:14:15.956Z,1.23
2023-01-09T11:19:16.610Z,1.10
2023-01-09T11:24:31.588Z,1.02
2023-01-09T11:29:35.042Z,0.90
2023-01-09T11:34:39.085Z,1.00
2023-01-09T11:39:48.035Z,1.00
2023-01-09T11:44:48.887Z,0.90
2023-01-09T11:49:51.300Z,0.77
2023-01-09T11:54:58.595Z,0.70
2023-01-09T12:00:03.222Z,0.90
2023-01-09T12:05:20.165Z,0.80
2023-01-09T12:10:42.276Z,0.68
2023-01-09T12:15:58.464Z,0.52
2023-01-09T12:21:17.869Z,0.57
2023-01-09T12:26:24.833Z,0.60
2023-01-09T12:31:37.654Z,0.68
2023-01-09T12:36:47.580Z,0.38
2023-01-09T12:42:18.457Z,0.70
2023-01-09T12:47:44.458Z,0.68
2023-01-09T12:52:54.464Z,0.57
2023-01-09T12:58:01.500Z,0.55
2023-01-09T13:03:13.100Z,0.43
2023-01-09T13:08:20.855Z,0.68
2023-01-09T13:13:27.458Z,0.60
2023-01-09T13:18:34.425Z,0.65
2023-01-09T13:23:44.872Z,0.63
2023-01-09T13:28:50.189Z,0.57
2023-01-09T13:33:54.887Z,0.35
2023-01-09T13:38:57.277Z,0.60
2023-01-09T13:44:02.268Z,0.63
2023-01-09T13:49:03.725Z,0.55
2023-01-09T13:54:04.632Z,0.93
2023-01-09T13:59:27.816Z,0.70
2023-01-09T14:04:44.502Z,1.75
2023-01-09T14:09:49.909Z,0.55
2023-01-09T14:14:54.215Z,0.60
2023-01-09T14:19:57.798Z,0.85
2023-01-09T14:25:05.378Z,0.50
2023-01-09T14:30:31.441Z,1.02
2023-01-09T14:35:46.468Z,0.70
2023-01-09T14:40:51.677Z,0.80
2023-01-09T14:45:57.997Z,0.80
2023-01-09T14:51:00.063Z,0.60
2023-01-09T14:56:05.967Z,1.10
2023-01-09T15:01:15.298Z,0.70
2023-01-09T15:06:20.825Z,0.73
2023-01-09T15:11:21.593Z,0.80
2023-01-09T15:16:26.084Z,0.90
2023-01-09T15:21:30.840Z,0.63
2023-01-09T15:26:32.069Z,0.60
2023-01-09T15:31:34.279Z,0.90
2023-01-09T15:36:39.872Z,0.70
2023-01-09T15:41:58.074Z,1.08
2023-01-09T15:47:01.852Z,0.63
2023-01-09T15:52:04.536Z,0.77
2023-01-09T15:57:30.216Z,1.10
2023-01-09T16:02:49.675Z,0.80
2023-01-09T16:07:52.142Z,0.88
2023-01-09T16:12:54.632Z,1.00
2023-01-09T16:18:21.357Z,5.22
2023-01-09T16:23:23.915Z,1.10
2023-01-09T16:28:30.576Z,1.02
2023-01-09T16:33:33.101Z,1.10
2023-01-09T16:38:34.568Z,1.33
2023-01-09T16:43:35.272Z,1.52
2023-01-09T16:48:39.393Z,1.42
2023-01-09T16:53:40.067Z,1.10
2023-01-09T16:58:40.749Z,1.45
2023-01-09T17:03:44.247Z,1.00
2023-01-09T17:08:45.242Z,1.35
2023-01-09T17:13:46.957Z,1.30
2023-01-09T17:18:49.049Z,1.10
2023-01-09T17:24:10.991Z,1.08
2023-01-09T17:29:11.703Z,1.15
2023-01-09T17:34:13.698Z,1.27
2023-01-09T17:39:15.213Z,1.27
2023-01-09T17:44:15.878Z,1.73
2023-01-09T17:49:20.591Z,1.73
2023-01-09T17:54:21.493Z,1.90
2023-01-09T17:59:22.245Z,1.73
2023-01-09T18:04:24.266Z,1.73
2023-01-09T18:09:24.949Z,2.33
2023-01-09T18:14:25.657Z,3.22
2023-01-09T18:19:27.689Z,2.92
2023-01-09T18:24:28.424Z,2.60
2023-01-09T18:29:29.132Z,2.78
2023-01-09T18:34:31.283Z,2.42
2023-01-09T18:39:32.006Z,2.25
2023-01-09T18:44:32.724Z,2.97
2023-01-09T18:49:34.747Z,2.38
2023-01-09T18:54:35.530Z,2.35
2023-01-09T18:59:36.283Z,2.20
2023-01-09T19:04:38.300Z,2.38
2023-01-09T19:09:39.065Z,2.03
2023-01-09T19:14:40.077Z,2.05
2023-01-09T19:19:42.257Z,1.80
2023-01-09T19:24:43.022Z,1.63
2023-01-09T19:29:43.698Z,1.65
2023-01-09T19:34:45.713Z,2.10
2023-01-09T19:39:46.988Z,1.92
2023-01-09T19:44:47.744Z,1.70
2023-01-09T19:49:50.114Z,1.65
2023-01-09T19:54:50.899Z,1.83
2023-01-09T19:59:51.708Z,1.50
2023-01-09T20:04:53.845Z,1.70
2023-01-09T20:09:54.562Z,2.65
2023-01-09T20:14:55.287Z,2.88
2023-01-09T20:19:57.314Z,2.72
2023-01-09T20:24:58.018Z,2.58
2023-01-09T20:30:00.709Z,2.20
2023-01-09T20:35:03.824Z,2.85
2023-01-09T20:40:05.544Z,2.80
2023-01-09T20:45:07.649Z,2.78
2023-01-09T20:50:11.126Z,2.83
2023-01-09T20:55:12.136Z,2.65
2023-01-09T21:00:14.018Z,2.78
2023-01-09T21:05:16.149Z,3.58
2023-01-09T21:10:17.389Z,3.22
2023-01-09T21:15:19.801Z,3.40
2023-01-09T21:20:22.301Z,2.95
2023-01-09T21:25:23.117Z,2.75
2023-01-09T21:30:23.793Z,1.90
2023-01-09T21:35:26.976Z,1.23
2023-01-09T21:40:27.717Z,1.90
2023-01-09T21:45:46.249Z,1.95
2023-01-09T21:50:48.405Z,1.25
2023-01-09T21:55:49.244Z,1.30
2023-01-09T22:00:50.622Z,1.63
2023-01-09T22:05:52.705Z,1.10
2023-01-09T22:10:59.852Z,0.93
2023-01-09T22:16:04.180Z,0.60
2023-01-09T22:21:06.495Z,0.88
2023-01-09T22:26:10.743Z,0.80
2023-01-09T22:31:12.055Z,1.20
2023-01-09T22:36:14.128Z,1.00
2023-01-09T22:41:15.145Z,1.00
2023-01-09T22:46:15.981Z,1.10
2023-01-09T22:51:21.443Z,1.30
2023-01-09T22:56:23.378Z,1.13
2023-01-09T23:01:24.028Z,1.10
2023-01-09T23:06:26.233Z,1.00
2023-01-09T23:11:49.042Z,1.40
2023-01-09T23:16:49.856Z,1.13
2023-01-09T23:21:51.886Z,1.00
2023-01-09T23:26:52.583Z,1.20
2023-01-09T23:31:54.008Z,1.20
2023-01-09T23:36:57.406Z,1.00
2023-01-09T23:42:16.070Z,1.20
2023-01-09T23:47:16.756Z,1.40
2023-01-09T23:52:18.727Z,1.48
2023-01-09T23:57:20.925Z,1.10
